Latest Coastal Weather Observations for Smithton

IDV60701

Issued at 10:51 am EST Thursday 5 May 2016 (issued every 10 minutes, with the page automatically refreshed every 10 minutes)

About coastal observations | Map of coastal stations | Coastal observations for VIC | Marine services | Other Formats
Station Details ID: 091292 Name: SMITHTON AERODROME Lat: -40.83 Lon: 145.08 Height: 7.5 m
Data from the previous 72 hours. | See also: Recent months at Smithton
Date/Time
EST
Temp

°C
Wind Pressure Rain
since 9am
mm
Weather Cloud Vis
km
Sea
Height
m
Swell
Dir
 
Speed
knots
Gust
knots
hPa Trend Height
m
Period
s
Dir
05/10:30am 16.5 NNW 15 20 1011.1 - 0.0 - - - - - - -
05/10:00am 15.9 NNW 14 19 1011.4 - 0.0 - - - - - - -
05/09:30am 15.9 NNW 17 23 1011.5 - 0.0 - - - - - - -
05/09:00am 15.7 NW 18 26 1011.7 - 1.8 - - - - - - -
05/08:30am 15.3 NNW 17 23 1011.5 - 1.8 - - - - - - -
05/08:00am 15.1 NNW 16 20 1011.4 - 1.8 - - - - - - -
05/07:30am 15.0 NNW 15 20 1011.2 - 1.8 - - - - - - -
05/07:00am 15.2 NNW 15 22 1011.0 - 1.8 - - - - - - -
05/06:49am 15.1 NNW 15 25 1011.0 - 1.8 - - - - - - -
05/06:30am 14.9 NNW 14 20 1011.0 - 1.8 - - - - - - -
05/06:00am 15.0 NNW 15 21 1010.9 - 1.8 - - - - - - -
05/05:30am 14.8 NNW 15 21 1010.9 - 1.8 - - - - - - -
05/05:00am 14.6 NW 15 22 1010.8 - 1.8 - - - - - - -
05/04:30am 14.7 NW 17 25 1010.6 - 1.8 - - - - - - -
05/04:00am 14.5 NW 13 17 1010.6 - 1.8 - - - - - - -
05/03:30am 14.1 NNW 14 17 1010.6 - 1.8 - - - - - - -
05/03:00am 14.3 NW 15 21 1010.7 - 1.8 - - - - - - -
05/02:30am 13.7 NW 13 17 1011.0 - 1.8 - - - - - - -
05/02:00am 13.9 NW 14 18 1010.9 - 1.8 - - - - - - -
05/01:30am 13.6 NW 15 19 1011.0 - 1.8 - - - - - - -
05/01:00am 13.7 NW 14 19 1011.1 - 1.4 - - - - - - -
05/12:30am 13.6 NW 18 28 1011.2 - 1.2 - - - - - - -
05/12:26am 13.9 NW 17 28 1011.2 - 0.8 - - - - - - -
05/12:00am 14.3 NNW 15 21 1011.1 - 0.8 - - - - - - -
 
Date/Time
EST
Temp

°C
Wind Pressure Rain
since 9am
mm
Weather Cloud Vis
km
Sea
Height
m
Swell
Dir
 
Speed
knots
Gust
knots
hPa Trend Height
m
Period
s
Dir
04/11:30pm 13.3 NNW 10 14 1011.1 - 0.8 - - - - - - -
04/11:00pm 13.3 NW 13 19 1011.4 - 0.8 - - - - - - -
04/10:41pm 13.7 NW 15 26 1011.5 - 0.8 - - - - - - -
04/10:30pm 13.4 NW 12 20 1011.5 - 0.8 - - - - - - -
04/10:00pm 13.1 NW 12 16 1011.6 - 0.8 - - - - - - -
04/09:30pm 13.2 NNW 10 14 1011.5 - 0.6 - - - - - - -
04/09:00pm 12.1 NW 8 11 1011.5 - 0.6 - - - - - - -
04/08:30pm 12.6 NW 15 24 1011.7 - 0.6 - - - - - - -
04/08:00pm 13.2 NW 17 27 1011.4 - 0.0 - - - - - - -
04/07:54pm 13.2 NW 15 27 1011.4 - 0.0 - - - - - - -
04/07:30pm 13.1 NNW 11 15 1011.3 - 0.0 - - - - - - -
04/07:00pm 12.8 NW 12 15 1011.2 - 0.0 - - - - - - -
04/06:30pm 12.9 NW 15 24 1011.0 - 0.0 - - - - - - -
04/06:00pm 12.8 NNW 13 18 1010.6 - 0.0 - - - - - - -
04/05:30pm 12.7 NW 12 18 1010.5 - 0.0 - - - - - - -
04/05:00pm 12.7 NW 11 14 1010.3 - 0.0 - - - - - - -
04/04:30pm 13.4 NW 13 19 1010.2 - 0.0 - - - - - - -
04/04:00pm 13.8 NW 14 21 1010.1 - 0.0 - - - - - - -
04/03:30pm 14.9 NW 18 25 1009.9 - 0.0 - - - - - - -
04/03:26pm 14.9 WNW 15 25 1009.8 - 0.0 - - - - - - -
04/03:00pm 14.3 WNW 13 17 1009.9 - 0.0 - - - - - - -
04/02:30pm 14.1 WNW 16 22 1009.7 - 0.0 - - - - - - -
04/02:00pm 14.1 WNW 16 23 1009.9 - 0.0 - - - - - - -
04/01:30pm 14.3 NW 14 19 1009.9 - 0.0 - - - - - - -
04/01:00pm 13.6 WNW 17 23 1010.0 - 0.0 - - - - - - -
04/12:30pm 14.1 WNW 16 21 1010.1 - 0.0 - - - - - - -
04/12:02pm 14.6 NW 15 25 1010.3 - 0.0 - - - - - - -
04/12:00pm 14.9 NW 14 19 1010.3 - 0.0 - - - - - - -
04/11:30am 13.4 W 13 19 1010.7 - 0.0 - - - - - - -
04/11:00am 14.8 WNW 12 16 1010.3 - 0.0 - - - - - - -
04/10:30am 14.0 WNW 13 17 1010.5 - 0.0 - - - - - - -
04/10:00am 13.3 W 11 16 1010.3 - 0.0 - - - - - - -
04/09:30am 11.5 S 5 7 1010.4 - 0.0 - - - - - - -
04/09:00am 10.7 S 6 9 1010.3 - 11.8 - - - - - - -
04/08:30am 9.1 CALM 0 1 1009.8 - 11.8 - - - - - - -
04/08:00am 7.2 CALM 0 0 1009.4 - 11.8 - - - - - - -
04/07:30am 7.1 WSW 5 6 1009.1 - 11.8 - - - - - - -
04/07:00am 8.4 WSW 9 12 1008.2 - 11.8 - - - - - - -
04/06:30am 8.5 W 9 13 1007.5 - 11.8 - - - - - - -
04/06:00am 8.6 W 10 13 1007.1 - 11.8 - - - - - - -
04/05:30am 9.1 W 13 19 1006.5 - 11.8 - - - - - - -
04/05:00am 7.2 W 8 9 1006.1 - 11.8 - - - - - - -
04/04:30am 8.1 W 10 13 1005.7 - 11.8 - - - - - - -
04/04:00am 8.6 WSW 18 25 1005.2 - 11.8 - - - - - - -
04/03:52am 9.3 WSW 21 25 1005.2 - 11.8 - - - - - - -
04/03:30am 8.4 W 9 13 1004.8 - 11.8 - - - - - - -
04/03:00am 8.9 W 12 15 1004.5 - 11.8 - - - - - - -
04/02:30am 8.8 W 15 21 1004.1 - 11.8 - - - - - - -
04/02:10am 9.5 W 15 25 1003.6 - 11.8 - - - - - - -
04/02:00am 9.2 W 11 15 1003.5 - 11.8 - - - - - - -
04/01:30am 9.1 W 15 20 1003.0 - 11.8 - - - - - - -
04/01:00am 7.9 W 11 14 1002.6 - 11.8 - - - - - - -
04/12:30am 8.5 W 16 23 1002.5 - 11.8 - - - - - - -
04/12:00am 8.6 WSW 13 19 1002.3 - 11.8 - - - - - - -
 
Date/Time
EST
Temp

°C
Wind Pressure Rain
since 9am
mm
Weather Cloud Vis
km
Sea
Height
m
Swell
Dir
 
Speed
knots
Gust
knots
hPa Trend Height
m
Period
s
Dir
03/11:30pm 8.7 W 13 16 1001.7 - 11.8 - - - - - - -
03/11:00pm 8.3 WSW 9 12 1001.6 - 11.8 - - - - - - -
03/10:30pm 8.4 W 13 18 1001.1 - 11.6 - - - - - - -
03/10:08pm 8.5 W 17 27 1000.9 - 11.4 - - - - - - -
03/10:00pm 8.4 W 17 22 1001.1 - 10.8 - - - - - - -
03/09:30pm 8.6 WSW 13 17 1000.8 - 10.2 - - - - - - -
03/09:17pm 9.1 W 20 30 1000.6 - 10.2 - - - - - - -
03/09:11pm 9.7 WSW 23 30 1000.6 - 9.8 - - - - - - -
03/09:00pm 9.8 WNW 15 25 999.9 - 9.8 - - - - - - -
03/08:30pm 10.8 W 19 33 999.5 - 9.8 - - - - - - -
03/08:13pm 9.9 WNW 15 27 999.2 - 9.8 - - - - - - -
03/08:00pm 9.9 W 13 17 999.0 - 9.8 - - - - - - -
03/07:30pm 9.5 WNW 14 19 998.8 - 9.8 - - - - - - -
03/07:00pm 8.7 WSW 13 18 998.4 - 9.8 - - - - - - -
03/06:31pm 10.5 W 16 27 997.9 - 9.8 - - - - - - -
03/06:30pm 10.4 W 15 22 997.9 - 9.8 - - - - - - -
03/06:00pm 10.2 W 12 15 996.8 - 9.8 - - - - - - -
03/05:30pm 9.8 W 10 13 996.1 - 9.8 - - - - - - -
03/05:00pm 10.1 W 13 17 995.4 - 9.6 - - - - - - -
03/04:30pm 9.8 W 11 14 995.1 - 9.6 - - - - - - -
03/04:00pm 9.6 WSW 15 19 994.5 - 9.6 - - - - - - -
03/03:49pm 10.0 WSW 15 29 994.5 - 9.6 - - - - - - -
03/03:30pm 9.9 W 12 17 994.2 - 9.4 - - - - - - -
03/03:00pm 10.1 W 16 26 993.8 - 9.0 - - - - - - -
03/02:53pm 10.1 W 15 26 993.3 - 8.6 - - - - - - -
03/02:30pm 10.4 WSW 12 17 992.9 - 8.2 - - - - - - -
03/02:24pm 10.4 WSW 15 25 992.7 - 8.0 - - - - - - -
03/02:00pm 10.5 W 15 19 992.9 - 7.2 - - - - - - -
03/01:30pm 11.3 W 17 25 992.3 - 6.8 - - - - - - -
03/01:00pm 12.8 WNW 14 19 992.4 - 6.4 - - - - - - -
03/12:30pm 13.1 WNW 14 19 992.5 - 6.4 - - - - - - -
03/12:00pm 12.4 NW 11 22 993.0 - 6.4 - - - - - - -
03/11:30am 12.2 W 8 11 992.5 - 6.2 - - - - - - -
03/11:00am 12.2 WSW 9 11 991.7 - 6.2 - - - - - - -
03/10:30am 11.4 WSW 17 23 992.7 - 6.2 - - - - - - -
03/10:10am 12.3 W 18 31 992.6 - 6.0 - - - - - - -
03/10:00am 12.8 WNW 16 25 992.2 - 5.8 - - - - - - -
03/09:30am 12.5 W 14 18 991.7 - 4.4 - - - - - - -
03/09:00am 12.2 NW 4 6 991.9 - 20.2 - - - - - - -
03/08:30am 12.2 WNW 5 7 992.2 - 16.2 - - - - - - -
03/08:00am 12.5 W 10 15 992.2 - 14.4 - - - - - - -
03/07:30am 13.2 NW 16 21 992.5 - 14.0 - - - - - - -
03/07:00am 13.2 NW 14 19 992.6 - 12.4 - - - - - - -
03/06:30am 13.0 NW 13 17 992.9 - 10.8 - - - - - - -
03/06:00am 13.1 WNW 12 18 993.3 - 9.8 - - - - - - -
03/05:30am 13.1 W 15 24 993.3 - 8.6 - - - - - - -
03/05:09am 13.7 W 27 37 993.1 - 7.8 - - - - - - -
03/05:04am 14.7 NW 18 30 992.5 - 4.4 - - - - - - -
03/05:00am 14.5 WNW 16 34 992.6 - 4.2 - - - - - - -
03/04:57am 14.5 WNW 17 34 992.5 - 4.0 - - - - - - -
03/04:30am 14.8 NNW 29 40 992.5 - 2.8 - - - - - - -
03/04:00am 16.0 NNW 29 43 992.5 - 2.4 - - - - - - -
03/03:34am 15.3 NNW 28 38 992.9 - 2.4 - - - - - - -
03/03:30am 15.3 NNW 25 34 993.0 - 2.2 - - - - - - -
03/03:00am 15.6 NNW 28 41 993.7 - 2.0 - - - - - - -
03/02:30am 16.2 NNW 27 38 994.4 - 2.0 - - - - - - -
03/02:00am 16.0 NNW 30 42 994.9 - 2.0 - - - - - - -
03/01:30am 16.5 NNW 30 41 995.3 - 2.0 - - - - - - -
03/01:00am 16.4 NNW 27 39 995.8 - 2.0 - - - - - - -
03/12:30am 16.3 NNW 27 40 996.6 - 2.0 - - - - - - -
03/12:00am 16.3 NNW 27 38 997.0 - 2.0 - - - - - - -
 
Date/Time
EST
Temp

°C
Wind Pressure Rain
since 9am
mm
Weather Cloud Vis
km
Sea
Height
m
Swell
Dir
 
Speed
knots
Gust
knots
hPa Trend Height
m
Period
s
Dir
02/11:30pm 16.3 NNW 25 36 997.7 - 2.0 - - - - - - -
02/11:00pm 16.3 NNW 26 42 998.1 - 2.0 - - - - - - -
02/10:30pm 16.1 NNW 25 35 998.9 - 2.0 - - - - - - -
02/10:11pm 16.1 NNW 26 37 998.8 - 2.0 - - - - - - -
02/10:00pm 16.0 NNW 25 34 999.2 - 2.0 - - - - - - -
02/09:59pm 16.1 NNW 24 34 999.2 - 2.0 - - - - - - -
02/09:30pm 15.8 NNW 21 27 999.6 - 2.0 - - - - - - -
02/09:00pm 15.0 NW 23 35 1000.2 - 2.0 - - - - - - -
02/08:30pm 15.4 NW 27 37 1000.6 - 1.8 - - - - - - -
02/08:02pm 16.1 NNW 23 33 1000.8 - 1.8 - - - - - - -
02/08:00pm 16.0 NNW 23 31 1000.8 - 1.8 - - - - - - -
02/07:30pm 15.9 NNW 23 32 1001.2 - 1.8 - - - - - - -
02/07:00pm 15.8 NNW 22 30 1001.2 - 1.8 - - - - - - -
02/06:32pm 15.8 NNW 21 33 1001.3 - 1.8 - - - - - - -
02/06:30pm 15.7 NNW 21 28 1001.3 - 1.8 - - - - - - -
02/06:03pm 15.4 NNW 20 30 1001.4 - 1.8 - - - - - - -
02/06:00pm 15.4 NNW 21 30 1001.5 - 1.8 - - - - - - -
02/05:30pm 14.7 NNW 17 22 1001.4 - 1.8 - - - - - - -
02/05:09pm 15.3 NNW 20 30 1001.7 - 1.8 - - - - - - -
02/05:00pm 15.3 NNW 21 28 1001.6 - 1.8 - - - - - - -
02/04:30pm 15.3 NNW 21 29 1001.7 - 1.8 - - - - - - -
02/04:00pm 15.6 NW 22 32 1002.2 - 1.8 - - - - - - -
02/03:30pm 15.1 NNW 21 31 1002.4 - 1.8 - - - - - - -
02/03:00pm 15.3 NW 24 34 1002.5 - 1.8 - - - - - - -
02/02:39pm 15.4 NW 22 32 1002.8 - 1.8 - - - - - - -
02/02:30pm 15.8 NW 22 30 1002.8 - 1.8 - - - - - - -
02/02:13pm 15.6 NW 19 30 1002.9 - 1.8 - - - - - - -
02/02:00pm 15.5 NW 22 31 1003.0 - 1.8 - - - - - - -
02/01:30pm 15.6 NW 22 32 1003.5 - 1.8 - - - - - - -
02/01:29pm 15.6 NW 21 32 1003.4 - 1.8 - - - - - - -
02/01:00pm 15.3 NW 21 30 1003.7 - 1.8 - - - - - - -
02/12:30pm 15.0 NW 24 38 1004.0 - 1.8 - - - - - - -
02/12:12pm 14.9 NW 22 32 1004.4 - 1.8 - - - - - - -
02/12:00pm 13.9 NW 18 24 1004.8 - 1.8 - - - - - - -
02/11:30am 14.6 NNW 17 23 1005.1 - 0.2 - - - - - - -
02/11:00am 14.7 NW 20 26 1005.3 - 0.0 - - - - - - -

Other Formats:

Comma delimited format used in spreadsheet applications
http://www.bom.gov.au/fwo/IDV60701/IDV60701.94953.axf

JavaScript Object Notation format (JSON) in row-major order
http://www.bom.gov.au/fwo/IDV60701/IDV60701.94953.json